Malaysia Virtual Airlines Airport Information Service

Amsterdam Airport Schiphol

ICAO: EHAM Country: Netherlands
Latitude: 52.3122 Longitude: 4.75039
Latest Arrival : AY841 (EFHK-EHAM) Latest Departure : KL1199 (EHAM-ENZV)


WX CaptureLIVE
Data provided by noaa.gov | Fetched at 21:11:25

METAR : EHAM 122055Z 08003KT CAVOK 10/09 Q1010 NOSIG

TAF : EHAM 121715Z 1218/1324 32005KT CAVOK PROB30 TEMPO 1218/1220 21014KT 7000 -SHRA FEW025CB BECMG 1219/1222 07004KT PROB30 1302/1305 4500 BR MIFG PROB40 TEMPO 1311/1321 11012KT 6000 SHRA SCT025CB


Runway Data for EHAM
Data provided by openaviationdata.com

Runway ID Mag Var Hdg Length Elevation Surface ILS Freq ILS Id ILS Slope
4 -1 42° 6619 ft -11 ft Asphalt -- -- --
6 -1 59° 11429 ft -11 ft Asphalt 110.55 KAG 3
9 -1 88° 11329 ft -11 ft Asphalt -- -- --
18L -1 184° 11155 ft -11 ft Asphalt -- -- --
18R -1 184° 12448 ft -11 ft Asphalt 110.1 VPB 3
18C -1 184° 10812 ft -11 ft Asphalt 109.5 SP 3
22 -1 222° 6619 ft -11 ft Asphalt 109.15 SCH 3
24 -1 239° 11429 ft -11 ft Asphalt -- -- --
27 -1 268° 11329 ft -11 ft Asphalt 111.55 0
36L -1 12448 ft -11 ft Asphalt -- -- --
36R -1 11155 ft -11 ft Asphalt 111.95 ABA 3
36C -1 10812 ft -11 ft Asphalt 108.75 SA 3

Amsterdam Airport Schiphol, Netherlands
Use only for reference purposes



Not for navigational purposes.